Time;durP1;ratioP1;P1;durP2;ratioP2;P2;SDS_P1;SDS_P2;PMS_P1;PMS_P2;Temp;Humidity;BMP_temperature;BMP_pressure;BME280_temperature;BME280_humidity;BME280_pressure;Samples;Min_cycle;Max_cycle;Signal;HPM_P1;HPM_P2
2022/06/21 00:01:50;;;;;;;4.73;4.30;;;;;;;19.74;66.75;94513.22;5118587;28;20765;-78
2022/06/21 00:04:19;;;;;;;6.17;4.83;;;;;;;19.67;67.20;94512.38;5118240;28;20763;-78
2022/06/21 00:06:46;;;;;;;5.03;4.30;;;;;;;19.53;67.38;94513.28;5118963;28;20481;-78
2022/06/21 00:09:16;;;;;;;4.63;4.33;;;;;;;19.46;67.52;94509.72;5100755;28;20443;-78
2022/06/21 00:11:43;;;;;;;5.10;4.60;;;;;;;19.42;67.83;94513.78;5127119;28;20454;-79
2022/06/21 00:14:10;;;;;;;6.90;4.40;;;;;;;19.40;67.51;94514.00;5122311;28;20435;-78
2022/06/21 00:16:37;;;;;;;4.53;4.00;;;;;;;19.33;67.95;94504.28;5117861;28;20968;-79
2022/06/21 00:19:06;;;;;;;4.93;4.40;;;;;;;19.32;68.13;94497.31;5117772;28;20451;-78
2022/06/21 00:21:37;;;;;;;5.73;4.10;;;;;;;19.30;68.17;94500.19;5116368;28;20809;-78
2022/06/21 00:24:05;;;;;;;4.03;3.73;;;;;;;19.30;68.06;94499.34;5116046;28;20443;-78
2022/06/21 00:26:32;;;;;;;4.67;4.27;;;;;;;19.27;67.78;94505.06;5115997;28;21019;-78
2022/06/21 00:28:59;;;;;;;4.87;4.43;;;;;;;19.25;67.71;94509.75;5116110;28;20451;-78
2022/06/21 00:31:30;;;;;;;4.70;4.40;;;;;;;19.21;67.77;94505.84;5116462;28;20805;-79
2022/06/21 00:33:58;;;;;;;5.43;4.63;;;;;;;19.12;68.72;94503.31;5116026;28;20434;-79
2022/06/21 00:36:27;;;;;;;6.50;4.00;;;;;;;19.04;68.63;94495.47;5116098;28;20447;-78
2022/06/21 00:38:58;;;;;;;4.60;4.30;;;;;;;19.05;68.30;94491.78;5115764;28;20969;-78
2022/06/21 00:41:35;;;;;;;4.93;4.40;;;;;;;19.04;68.86;94484.81;5115921;28;20481;-78
2022/06/21 00:44:04;;;;;;;5.00;4.50;;;;;;;19.05;68.96;94485.63;5081380;28;20941;-79
2022/06/21 00:46:38;;;;;;;4.70;4.30;;;;;;;19.03;69.45;94483.19;5115808;28;20482;-78
2022/06/21 00:49:12;;;;;;;4.77;4.37;;;;;;;19.02;69.77;94486.03;5115628;27;20444;-79
2022/06/21 00:51:42;;;;;;;4.43;4.13;;;;;;;19.01;69.31;94495.03;5115653;28;20434;-79
2022/06/21 00:54:17;;;;;;;4.87;4.50;;;;;;;19.05;69.22;94499.75;5115949;28;20442;-78
2022/06/21 00:56:51;;;;;;;5.27;4.73;;;;;;;19.10;69.15;94494.72;5116013;28;20774;-79
2022/06/21 00:59:21;;;;;;;4.93;4.60;;;;;;;19.14;68.78;94497.81;5115425;28;20516;-79
2022/06/21 01:01:49;;;;;;;4.70;4.40;;;;;;;19.11;68.76;94496.38;5115878;28;20435;-79
2022/06/21 01:04:26;;;;;;;5.73;4.40;;;;;;;19.02;68.86;94496.66;5115885;28;20454;-78
2022/06/21 01:06:58;;;;;;;4.77;4.37;;;;;;;19.01;69.21;94501.16;5115559;28;20483;-79
2022/06/21 01:09:32;;;;;;;3.93;3.63;;;;;;;19.02;69.42;94500.16;5115236;28;20447;-79
2022/06/21 01:12:03;;;;;;;5.10;4.60;;;;;;;19.00;69.75;94496.84;5115499;28;20451;-78
2022/06/21 01:14:33;;;;;;;4.37;4.03;;;;;;;19.07;69.44;94497.72;5115272;28;20444;-79
2022/06/21 01:17:00;;;;;;;5.23;4.80;;;;;;;19.04;69.69;94494.63;5115082;28;20428;-79
2022/06/21 01:19:36;;;;;;;5.67;4.00;;;;;;;19.06;69.90;94493.44;5115106;28;20443;-79
2022/06/21 01:22:13;;;;;;;5.30;4.80;;;;;;;19.08;69.83;94491.44;5114977;28;20450;-79
2022/06/21 01:24:46;;;;;;;15.03;5.07;;;;;;;19.10;69.81;94494.72;5115231;28;20451;-79
2022/06/21 01:27:15;;;;;;;5.33;4.87;;;;;;;19.13;70.18;94498.81;5115210;28;20483;-79
2022/06/21 01:29:43;;;;;;;5.13;4.73;;;;;;;19.11;70.16;94496.38;5114827;28;20981;-79
2022/06/21 01:32:10;;;;;;;4.20;4.00;;;;;;;19.06;70.33;94498.75;5114866;28;20493;-79
2022/06/21 01:34:39;;;;;;;5.90;5.40;;;;;;;19.06;70.31;94501.41;5114879;28;20447;-79
2022/06/21 01:37:11;;;;;;;4.97;4.57;;;;;;;19.06;70.56;94500.59;5115179;28;20526;-78
2022/06/21 01:39:46;;;;;;;4.67;4.37;;;;;;;19.04;70.36;94503.44;5114873;28;20454;-79
2022/06/21 01:42:19;;;;;;;4.60;4.30;;;;;;;19.01;70.78;94505.66;5114845;28;20484;-79
2022/06/21 01:44:49;;;;;;;5.27;4.60;;;;;;;18.99;70.78;94513.00;5114931;28;20776;-79
2022/06/21 01:47:21;;;;;;;4.97;4.50;;;;;;;18.98;70.86;94511.38;5114012;28;20543;-79
2022/06/21 01:49:53;;;;;;;5.43;4.93;;;;;;;18.98;71.04;94501.53;5114811;28;20949;-79
2022/06/21 01:52:23;;;;;;;6.17;5.07;;;;;;;18.95;70.95;94499.28;5114757;28;20444;-79
2022/06/21 01:54:56;;;;;;;5.23;4.83;;;;;;;18.97;71.01;94504.41;5114376;28;20969;-78
2022/06/21 01:57:25;;;;;;;7.30;5.33;;;;;;;18.99;71.06;94505.84;5114473;28;20439;-79
2022/06/21 01:59:53;;;;;;;5.37;4.87;;;;;;;18.95;70.98;94501.94;5114131;28;20448;-79
2022/06/21 02:02:23;;;;;;;8.07;5.10;;;;;;;18.90;71.50;94499.03;5079066;28;20806;-79
2022/06/21 02:04:55;;;;;;;6.10;5.60;;;;;;;18.89;71.71;94508.03;5114204;27;20454;-79
2022/06/21 02:07:30;;;;;;;6.90;5.93;;;;;;;18.88;72.34;94506.38;5114533;28;20493;-78
2022/06/21 02:10:08;;;;;;;5.23;4.90;;;;;;;18.85;72.69;94512.06;5095241;28;20941;-78
2022/06/21 02:12:40;;;;;;;5.23;4.73;;;;;;;18.79;72.58;94502.16;5114246;28;20990;-78
2022/06/21 02:15:12;;;;;;;6.00;5.50;;;;;;;18.69;72.79;94505.16;5079165;28;20442;-79
2022/06/21 02:17:44;;;;;;;6.77;5.03;;;;;;;18.60;73.04;94502.78;5114028;28;20934;-78
2022/06/21 02:20:19;;;;;;;5.40;4.90;;;;;;;18.60;72.99;94497.47;5114375;28;20444;-79
2022/06/21 02:22:47;;;;;;;5.40;5.00;;;;;;;18.54;73.17;94499.88;5114020;28;20466;-78
2022/06/21 02:25:16;;;;;;;5.40;5.00;;;;;;;18.53;73.25;94503.53;5114211;28;20436;-78
2022/06/21 02:27:45;;;;;;;5.57;5.07;;;;;;;18.52;72.89;94501.06;5113889;28;20491;-79
2022/06/21 02:30:17;;;;;;;5.17;4.67;;;;;;;18.47;72.98;94493.63;5113898;28;20457;-79
2022/06/21 02:32:44;;;;;;;5.87;5.33;;;;;;;18.52;72.87;94501.91;5113993;28;20478;-79
2022/06/21 02:35:19;;;;;;;7.80;7.20;;;;;;;18.53;73.62;94492.91;5113594;28;20450;-78
2022/06/21 02:37:47;;;;;;;6.00;5.13;;;;;;;18.50;73.58;94487.97;5114214;28;20426;-79
2022/06/21 02:40:21;;;;;;;6.50;5.80;;;;;;;18.46;73.91;94481.38;5077913;28;20470;-79
2022/06/21 02:42:52;;;;;;;6.53;5.50;;;;;;;18.24;75.06;94499.13;5113481;28;20448;-79
2022/06/21 02:45:25;;;;;;;6.13;5.60;;;;;;;18.17;75.53;94486.75;5113878;28;20536;-79
2022/06/21 02:47:55;;;;;;;6.23;5.73;;;;;;;18.03;76.69;94491.09;5113242;28;20487;-79
2022/06/21 02:50:36;;;;;;;6.40;5.90;;;;;;;18.07;76.12;94497.69;5114033;28;20519;-78
2022/06/21 02:53:08;;;;;;;10.10;5.80;;;;;;;18.02;75.86;94492.09;5113841;28;20471;-79
2022/06/21 02:55:43;;;;;;;7.40;5.57;;;;;;;18.09;76.20;94493.00;5113301;28;20446;-78
2022/06/21 02:58:17;;;;;;;5.97;5.30;;;;;;;18.13;76.32;94501.41;5112514;28;20442;-79
2022/06/21 03:00:45;;;;;;;5.40;5.00;;;;;;;18.19;76.38;94492.72;5113053;28;20446;-78
2022/06/21 03:03:18;;;;;;;6.27;5.77;;;;;;;18.20;75.85;94491.69;5113413;28;20451;-79
2022/06/21 03:05:48;;;;;;;6.20;5.70;;;;;;;18.22;75.51;94485.22;5113114;28;20443;-79
2022/06/21 03:08:16;;;;;;;5.30;4.90;;;;;;;18.25;75.55;94484.84;5113046;28;20826;-79
2022/06/21 03:10:47;;;;;;;5.20;4.80;;;;;;;18.27;75.17;94484.66;5113235;28;20461;-79
2022/06/21 03:13:18;;;;;;;5.60;5.20;;;;;;;18.22;75.24;94482.56;5113295;28;20448;-78
2022/06/21 03:15:50;;;;;;;6.10;5.60;;;;;;;18.30;74.45;94486.94;5113126;28;20931;-79
2022/06/21 03:18:22;;;;;;;5.93;5.00;;;;;;;18.32;74.77;94487.56;5113323;28;20947;-79
2022/06/21 03:20:51;;;;;;;5.50;5.00;;;;;;;18.38;74.18;94486.81;5113229;28;20442;-79
2022/06/21 03:23:20;;;;;;;6.20;5.70;;;;;;;18.38;74.22;94473.53;5112920;28;20473;-79
2022/06/21 03:25:51;;;;;;;4.83;4.53;;;;;;;18.39;74.44;94488.44;5112645;28;20435;-78
2022/06/21 03:28:27;;;;;;;6.60;6.03;;;;;;;18.44;74.18;94472.75;5113145;28;20483;-78
2022/06/21 03:31:00;;;;;;;6.07;5.47;;;;;;;18.51;73.37;94472.84;5113100;28;20449;-79
2022/06/21 03:33:28;;;;;;;9.03;4.30;;;;;;;18.58;72.87;94474.56;5113454;28;20442;-78
2022/06/21 03:35:56;;;;;;;5.87;5.20;;;;;;;18.72;72.55;94472.06;5112779;28;20855;-78
2022/06/21 03:38:25;;;;;;;5.23;4.80;;;;;;;18.94;71.78;94487.00;5113285;28;20447;-78
2022/06/21 03:43:43;;;;;;;8.70;4.60;;;;;;;19.67;69.80;94488.41;5113178;28;20516;-79
2022/06/21 03:46:20;;;;;;;6.30;4.80;;;;;;;20.12;67.94;94488.84;5112768;28;20443;-79
2022/06/21 03:48:52;;;;;;;5.13;4.67;;;;;;;20.46;66.84;94500.47;5112910;28;20485;-79
2022/06/21 03:51:23;;;;;;;5.30;4.90;;;;;;;20.68;65.32;94493.97;5112977;28;20443;-78
2022/06/21 03:53:56;;;;;;;5.50;5.10;;;;;;;20.97;64.04;94493.63;5112788;28;20438;-79
2022/06/21 03:56:30;;;;;;;8.33;5.13;;;;;;;21.29;62.52;94496.53;5112660;28;20431;-78
2022/06/21 03:59:05;;;;;;;4.93;4.53;;;;;;;21.58;62.22;94501.47;5113046;28;20444;-78
2022/06/21 04:01:37;;;;;;;6.17;4.93;;;;;;;21.93;60.53;94503.88;5112762;28;20531;-79
2022/06/21 04:04:12;;;;;;;5.40;4.90;;;;;;;22.19;59.73;94495.81;5112573;28;20859;-79
2022/06/21 04:06:45;;;;;;;5.03;4.63;;;;;;;22.46;58.62;94499.19;5112897;28;20439;-79
2022/06/21 04:09:20;;;;;;;5.27;4.87;;;;;;;22.79;57.81;94512.41;5094650;28;20474;-79
2022/06/21 04:11:54;;;;;;;5.27;4.87;;;;;;;23.06;56.66;94504.25;5116626;28;20435;-79
2022/06/21 04:14:30;;;;;;;5.27;4.97;;;;;;;23.30;55.55;94498.09;5117226;28;20434;-79
2022/06/21 04:17:03;;;;;;;4.67;4.37;;;;;;;23.57;55.25;94495.25;5116615;28;20445;-79
2022/06/21 04:19:35;;;;;;;5.00;4.60;;;;;;;23.78;54.24;94490.31;5081411;28;20457;-79
2022/06/21 04:22:09;;;;;;;7.00;4.40;;;;;;;24.06;54.36;94491.66;5116449;28;20447;-79
2022/06/21 04:24:44;;;;;;;10.83;6.77;;;;;;;23.68;55.96;94494.50;5116353;28;20442;-79
2022/06/21 04:27:18;;;;;;;8.00;6.33;;;;;;;23.76;55.79;94486.22;5115958;28;20824;-79
2022/06/21 04:29:51;;;;;;;8.43;5.70;;;;;;;23.86;55.29;94489.19;5116460;28;20446;-79
2022/06/21 04:32:23;;;;;;;14.03;6.80;;;;;;;23.93;53.98;94491.78;5116294;28;20471;-79
2022/06/21 04:34:57;;;;;;;6.97;6.07;;;;;;;24.20;53.96;94486.97;5116272;28;20450;-79
2022/06/21 04:37:30;;;;;;;9.70;5.40;;;;;;;24.39;53.42;94478.72;5115807;28;20445;-79
2022/06/21 04:40:03;;;;;;;7.43;6.40;;;;;;;23.59;53.98;94471.72;5115739;28;20471;-79
2022/06/21 04:42:35;;;;;;;8.57;5.77;;;;;;;23.45;56.11;94466.47;5115939;28;20522;-79
2022/06/21 04:45:08;;;;;;;8.17;6.57;;;;;;;23.34;56.12;94467.16;5115982;28;20458;-79
2022/06/21 04:47:41;;;;;;;12.73;6.40;;;;;;;23.59;55.83;94467.19;5115915;28;20505;-79
2022/06/21 04:50:21;;;;;;;7.30;6.60;;;;;;;23.43;55.72;94467.75;5116007;28;20439;-79
2022/06/21 04:52:53;;;;;;;7.70;6.90;;;;;;;23.71;56.77;94469.97;5115811;27;20486;-79
2022/06/21 04:55:27;;;;;;;11.70;6.47;;;;;;;24.19;56.45;94477.28;5116007;28;20447;-79
2022/06/21 04:57:54;;;;;;;7.40;6.80;;;;;;;24.55;54.32;94477.28;5115401;28;20451;-79
2022/06/21 05:00:23;;;;;;;7.83;7.13;;;;;;;24.96;53.59;94484.56;5115594;28;20443;-79
2022/06/21 05:02:52;;;;;;;7.00;6.40;;;;;;;25.35;52.59;94481.53;5115706;28;20434;-79
2022/06/21 05:05:22;;;;;;;7.17;6.40;;;;;;;25.43;50.87;94483.88;5115466;28;20436;-79
2022/06/21 05:07:52;;;;;;;7.90;6.70;;;;;;;25.73;50.93;94481.94;5079607;28;20486;-79
2022/06/21 05:10:24;;;;;;;11.63;6.00;;;;;;;26.10;50.64;94495.16;5115609;28;20444;-79
2022/06/21 05:12:53;;;;;;;10.50;6.00;;;;;;;26.36;49.14;94494.69;5115744;28;20795;-79
2022/06/21 05:15:25;;;;;;;6.73;6.03;;;;;;;26.30;48.44;94503.66;5115439;28;20450;-79
2022/06/21 05:17:56;;;;;;;7.17;5.63;;;;;;;26.57;49.50;94505.84;5114987;28;20454;-80
2022/06/21 05:20:27;;;;;;;8.87;5.90;;;;;;;26.67;47.99;94506.91;5114163;28;20444;-79
2022/06/21 05:22:58;;;;;;;9.00;6.50;;;;;;;26.83;47.64;94508.81;5079186;28;20440;-79
2022/06/21 05:25:30;;;;;;;7.90;6.30;;;;;;;27.07;47.30;94517.66;5115122;28;20439;-79
2022/06/21 05:28:02;;;;;;;10.60;6.70;;;;;;;27.21;46.20;94514.69;5114772;28;20483;-79
2022/06/21 05:30:40;;;;;;;7.83;6.93;;;;;;;27.42;46.36;94519.34;5114880;28;20482;-79
2022/06/21 05:33:15;;;;;;;7.30;6.60;;;;;;;27.79;46.17;94513.53;5115216;28;20451;-79
2022/06/21 05:35:43;;;;;;;9.10;6.83;;;;;;;27.75;47.57;94510.47;5114899;28;20438;-79
2022/06/21 05:38:14;;;;;;;8.80;7.00;;;;;;;27.71;47.63;94522.81;5115227;28;20443;-80
2022/06/21 05:40:48;;;;;;;7.53;6.20;;;;;;;27.77;46.67;94516.47;5114808;28;20478;-79
2022/06/21 05:43:18;;;;;;;11.37;7.00;;;;;;;26.97;47.43;94514.75;5114959;28;20443;-80
2022/06/21 05:45:51;;;;;;;17.03;7.30;;;;;;;27.14;48.24;94509.41;5115036;28;20447;-79
2022/06/21 05:48:23;;;;;;;12.60;6.63;;;;;;;27.57;47.55;94500.75;5114670;28;20471;-79
2022/06/21 05:50:51;;;;;;;13.27;6.60;;;;;;;27.97;46.13;94505.16;5114462;28;20447;-79
2022/06/21 05:53:26;;;;;;;7.20;6.37;;;;;;;27.62;46.45;94503.56;5114248;28;20447;-80
2022/06/21 05:55:53;;;;;;;10.77;5.70;;;;;;;28.00;46.51;94505.47;5114697;28;20447;-79
2022/06/21 05:58:25;;;;;;;12.57;6.10;;;;;;;28.12;45.18;94499.19;5114178;28;20442;-80
2022/06/21 06:01:00;;;;;;;16.83;6.57;;;;;;;28.11;45.36;94503.75;5114190;28;20462;-79
2022/06/21 06:03:32;;;;;;;12.63;6.67;;;;;;;28.33;45.06;94504.63;5114526;28;20439;-79
2022/06/21 06:06:05;;;;;;;6.77;6.07;;;;;;;28.59;44.42;94503.06;5114388;28;20527;-79
2022/06/21 06:08:36;;;;;;;10.20;5.63;;;;;;;28.97;43.22;94496.81;5114195;28;20483;-80
2022/06/21 06:11:08;;;;;;;11.10;6.23;;;;;;;29.33;42.75;94497.16;5114489;28;20442;-80
2022/06/21 06:13:39;;;;;;;12.13;6.50;;;;;;;29.37;42.05;94492.88;5114394;28;20427;-80
2022/06/21 06:16:15;;;;;;;7.10;5.97;;;;;;;28.78;43.29;94486.56;5114323;28;20467;-79
2022/06/21 06:18:50;;;;;;;10.90;5.80;;;;;;;28.88;44.52;94486.69;5114138;28;20443;-80
2022/06/21 06:21:23;;;;;;;10.47;5.97;;;;;;;28.90;43.95;94488.06;5114500;28;20447;-79
2022/06/21 06:23:56;;;;;;;10.33;6.53;;;;;;;29.08;43.22;94494.22;5114284;28;20534;-79
2022/06/21 06:26:28;;;;;;;7.80;6.30;;;;;;;29.16;42.23;94501.84;5113918;28;20458;-79
2022/06/21 06:29:01;;;;;;;6.00;5.40;;;;;;;29.11;41.47;94494.50;5114150;28;20506;-80
2022/06/21 06:31:35;;;;;;;6.13;5.70;;;;;;;29.27;42.70;94503.59;5114090;28;20448;-79
2022/06/21 06:34:10;;;;;;;7.80;5.30;;;;;;;29.39;42.84;94489.91;5113840;28;20451;-80
2022/06/21 06:36:43;;;;;;;6.40;5.60;;;;;;;29.63;42.22;94506.66;5113890;27;20447;-80
2022/06/21 06:39:19;;;;;;;6.33;5.63;;;;;;;29.64;41.95;94502.88;5113681;28;20447;-80
2022/06/21 06:41:52;;;;;;;9.00;7.30;;;;;;;29.15;42.61;94516.44;5113857;28;20483;-80
2022/06/21 06:44:21;;;;;;;7.03;6.40;;;;;;;29.28;42.97;94500.66;5113925;28;20829;-80
2022/06/21 06:46:52;;;;;;;9.47;6.30;;;;;;;29.62;42.51;94511.25;5113832;28;20451;-80
2022/06/21 06:49:23;;;;;;;12.73;7.13;;;;;;;29.90;42.41;94500.13;5113661;28;20475;-79
2022/06/21 06:52:01;;;;;;;14.87;8.63;;;;;;;30.00;41.59;94503.97;5113392;28;20479;-80
2022/06/21 06:54:38;;;;;;;9.67;7.10;;;;;;;29.70;42.07;94499.13;5113440;28;20500;-80
2022/06/21 06:57:21;;;;;;;12.70;6.63;;;;;;;29.69;43.06;94489.38;5113652;28;20440;-80
2022/06/21 06:59:48;;;;;;;8.60;6.93;;;;;;;29.81;42.03;94492.75;5113376;28;20444;-80
2022/06/21 07:02:24;;;;;;;11.10;9.00;;;;;;;29.47;42.70;94492.19;5113698;28;20440;-80
2022/06/21 07:05:00;;;;;;;12.17;8.50;;;;;;;29.63;42.34;94493.13;5113465;28;20443;-79
2022/06/21 07:07:33;;;;;;;10.77;8.40;;;;;;;29.49;42.91;94490.03;5113861;28;20522;-80
2022/06/21 07:10:05;;;;;;;14.50;8.00;;;;;;;29.77;43.46;94487.00;5113309;28;20479;-79
2022/06/21 07:12:33;;;;;;;11.00;7.30;;;;;;;29.96;42.39;94487.44;5113340;28;20504;-80
2022/06/21 07:15:00;;;;;;;9.23;8.20;;;;;;;29.85;42.64;94480.34;5113302;28;20846;-80
2022/06/21 07:17:35;;;;;;;22.27;8.47;;;;;;;29.92;42.25;94479.03;5112980;28;20933;-80
2022/06/21 07:20:02;;;;;;;11.43;8.00;;;;;;;30.02;41.83;94477.44;5112989;28;20980;-80
2022/06/21 07:22:34;;;;;;;20.60;8.47;;;;;;;29.69;44.57;94486.69;5113016;28;20914;-80
2022/06/21 07:25:07;;;;;;;14.03;8.80;;;;;;;29.78;43.61;94483.25;5112889;28;21015;-80
2022/06/21 07:27:38;;;;;;;10.97;8.57;;;;;;;29.86;44.12;94481.97;5112734;28;20450;-80
2022/06/21 07:30:09;;;;;;;15.60;8.80;;;;;;;29.66;45.11;94476.38;5113132;28;20475;-80
2022/06/21 07:32:44;;;;;;;14.00;8.30;;;;;;;29.98;46.85;94479.88;5112848;28;20439;-80
2022/06/21 07:35:19;;;;;;;9.10;7.80;;;;;;;30.32;44.48;94482.25;5113327;28;20609;-80
2022/06/21 07:37:50;;;;;;;22.20;8.23;;;;;;;30.44;42.44;94482.88;5113115;28;20439;-81
2022/06/21 07:40:23;;;;;;;11.07;7.77;;;;;;;30.03;43.11;94484.53;5113021;28;20472;-80
2022/06/21 07:42:58;;;;;;;18.83;9.07;;;;;;;29.84;44.30;94484.94;5112715;28;20489;-80
2022/06/21 07:45:29;;;;;;;17.50;8.67;;;;;;;29.89;44.42;94489.56;5116778;28;20439;-79
2022/06/21 07:48:03;;;;;;;21.60;7.93;;;;;;;29.95;44.77;94496.63;5117171;28;20447;-80
2022/06/21 07:50:35;;;;;;;8.97;7.50;;;;;;;29.58;43.97;94493.91;5117142;28;20975;-80
2022/06/21 07:53:09;;;;;;;15.83;8.33;;;;;;;29.46;45.85;94494.06;5116770;28;20453;-80
2022/06/21 07:55:40;;;;;;;14.03;8.40;;;;;;;29.61;45.41;94496.09;5098755;28;20451;-80
2022/06/21 07:58:11;;;;;;;21.60;8.67;;;;;;;29.42;45.29;94490.22;5117613;28;20450;-80
2022/06/21 08:09:13;;;;;;;14.73;8.23;;;;;;;30.25;45.62;94509.56;5054330;28;20513;-81
2022/06/21 08:11:41;;;;;;;32.50;11.50;;;;;;;30.42;45.35;94521.06;5053822;28;20457;-80
2022/06/21 08:14:09;;;;;;;14.23;8.60;;;;;;;30.46;44.19;94496.97;5053621;28;20462;-80
2022/06/21 08:16:43;;;;;;;16.77;7.57;;;;;;;30.51;43.76;94511.34;5036896;28;20443;-80
2022/06/21 08:19:15;;;;;;;7.57;6.50;;;;;;;30.30;43.40;94500.66;5053753;28;20441;-80
2022/06/21 08:21:47;;;;;;;7.80;7.10;;;;;;;30.42;44.08;94499.41;5053684;28;20519;-79
2022/06/21 08:24:20;;;;;;;11.00;6.13;;;;;;;30.40;44.65;94495.31;5054014;28;20447;-80
2022/06/21 08:26:53;;;;;;;9.97;6.60;;;;;;;30.17;44.49;94489.22;5053480;28;20446;-80
2022/06/21 08:29:27;;;;;;;9.23;7.10;;;;;;;30.36;45.43;94510.44;5053478;28;20485;-80
2022/06/21 08:32:00;;;;;;;9.60;7.10;;;;;;;30.35;45.23;94508.81;5053441;28;20441;-80
2022/06/21 08:34:35;;;;;;;9.20;7.53;;;;;;;30.27;45.31;94506.59;5053256;28;20440;-80
2022/06/21 08:37:06;;;;;;;12.20;7.90;;;;;;;30.14;45.32;94511.41;5053443;28;20453;-80
2022/06/21 08:39:40;;;;;;;10.20;9.30;;;;;;;29.85;46.52;94501.97;5054889;28;20430;-80
2022/06/21 08:42:41;;;;;;;11.03;9.03;;;;;;;29.81;46.53;94504.38;5116174;28;20439;-80
2022/06/21 08:45:43;;;;;;;9.27;8.37;;;;;;;29.80;46.65;94508.16;5053164;28;20445;-79
2022/06/21 08:48:54;;;;;;;10.80;8.10;;;;;;;29.59;47.42;94501.78;5052992;28;20446;-79
2022/06/21 08:51:56;;;;;;;9.23;8.33;;;;;;;29.64;48.38;94500.19;5052934;28;20447;-80
2022/06/21 08:54:34;;;;;;;10.70;8.93;;;;;;;29.50;47.89;94497.91;5052944;28;20476;-79
2022/06/21 08:57:10;;;;;;;14.17;8.60;;;;;;;29.60;48.02;94483.66;5051874;28;20446;-79
2022/06/21 08:59:46;;;;;;;10.20;8.50;;;;;;;29.58;47.97;94493.91;5052483;28;20438;-79
2022/06/21 09:02:22;;;;;;;8.67;7.97;;;;;;;29.72;48.73;94488.88;5052814;28;20808;-79
2022/06/21 09:05:03;;;;;;;17.47;9.20;;;;;;;29.62;47.98;94483.38;5052727;28;20441;-80
2022/06/21 09:07:57;;;;;;;12.23;9.93;;;;;;;29.47;49.50;94478.66;5052676;28;20921;-79
2022/06/21 09:10:44;;;;;;;16.03;9.93;;;;;;;29.25;49.39;94481.44;5052358;28;20482;-79
2022/06/21 09:13:40;;;;;;;10.30;9.30;;;;;;;29.15;49.94;94471.31;5052383;28;20458;-80
2022/06/21 09:16:13;;;;;;;15.73;9.90;;;;;;;29.09;51.02;94463.41;5052532;28;20447;-80
2022/06/21 09:18:57;;;;;;;11.43;8.97;;;;;;;29.14;50.62;94475.09;5052530;28;20937;-79
2022/06/21 09:21:32;;;;;;;14.80;8.63;;;;;;;29.14;51.20;94474.28;5065179;28;20447;-80
2022/06/21 09:24:06;;;;;;;10.27;9.27;;;;;;;29.25;50.57;94476.03;5115130;28;20508;-80
2022/06/21 09:26:39;;;;;;;10.43;9.43;;;;;;;29.37;50.79;94455.03;5115480;28;20481;-80
2022/06/21 09:29:22;;;;;;;11.27;9.83;;;;;;;29.36;50.84;94475.03;5114986;28;20487;-80
2022/06/21 09:32:07;;;;;;;13.03;10.50;;;;;;;29.41;51.54;94461.56;5115188;28;20443;-79
2022/06/21 09:34:42;;;;;;;11.30;9.27;;;;;;;29.49;51.34;94463.00;5096115;28;20805;-80
2022/06/21 09:37:21;;;;;;;18.27;10.30;;;;;;;29.68;51.11;94463.41;5114568;28;20435;-80
2022/06/21 09:39:58;;;;;;;12.73;9.90;;;;;;;29.68;50.37;94471.53;5114948;28;20435;-80
2022/06/21 09:42:31;;;;;;;17.57;10.47;;;;;;;29.51;50.07;94469.81;5114637;28;20432;-80
2022/06/21 09:45:09;;;;;;;10.47;9.43;;;;;;;29.33;50.46;94463.91;5115260;28;20547;-80
2022/06/21 09:47:52;;;;;;;11.80;9.63;;;;;;;29.42;51.87;94462.38;5114514;28;20427;-79
2022/06/21 09:50:28;;;;;;;11.93;10.53;;;;;;;29.45;51.96;94453.75;5078591;28;20481;-79
2022/06/21 09:53:03;;;;;;;12.97;10.33;;;;;;;29.43;50.85;94453.19;5114169;28;21052;-80
2022/06/21 09:55:49;;;;;;;12.37;9.83;;;;;;;29.35;51.29;94446.38;5114415;28;20443;-79
2022/06/21 09:58:21;;;;;;;11.77;10.03;;;;;;;29.41;50.74;94445.31;5114493;28;20478;-79
2022/06/21 10:00:59;;;;;;;11.27;10.23;;;;;;;29.47;50.50;94446.22;5114643;28;20447;-79
2022/06/21 10:03:37;;;;;;;13.90;9.70;;;;;;;29.55;50.72;94441.16;5114429;28;20504;-79
2022/06/21 10:06:12;;;;;;;12.17;10.70;;;;;;;29.48;50.04;94445.13;5114324;28;20546;-79
2022/06/21 10:09:12;;;;;;;10.33;9.13;;;;;;;29.46;50.68;94445.41;5113869;28;20986;-79
2022/06/21 10:11:49;;;;;;;11.90;10.57;;;;;;;29.34;51.35;94439.31;5071500;28;20445;-81
2022/06/21 10:14:42;;;;;;;9.33;8.43;;;;;;;29.32;50.39;94441.47;5071330;28;20437;-81
2022/06/21 10:17:35;;;;;;;10.63;9.53;;;;;;;29.27;50.75;94453.06;5071338;28;20456;-79
2022/06/21 10:20:23;;;;;;;16.57;11.07;;;;;;;29.36;50.87;94448.00;5011685;28;20461;-79
2022/06/21 10:23:02;;;;;;;15.67;10.50;;;;;;;29.49;50.89;94438.66;5011442;28;20448;-79
2022/06/21 10:25:44;;;;;;;13.80;9.30;;;;;;;29.54;50.55;94439.53;5011475;28;20447;-79
2022/06/21 10:28:45;;;;;;;14.40;10.37;;;;;;;29.53;50.87;94442.50;5011583;28;20476;-79
2022/06/21 10:31:32;;;;;;;11.80;10.80;;;;;;;29.50;50.46;94433.03;5010741;28;20522;-79
2022/06/21 10:34:49;;;;;;;12.73;10.43;;;;;;;29.41;49.75;94439.91;5011510;28;20455;-80
2022/06/21 10:37:40;;;;;;;13.70;10.37;;;;;;;29.55;51.08;94451.97;5011499;28;20448;-79
2022/06/21 10:40:32;;;;;;;12.23;9.60;;;;;;;29.65;50.15;94445.00;5010682;28;20484;-79
2022/06/21 10:43:20;;;;;;;10.30;9.40;;;;;;;29.76;51.63;94441.28;5011359;28;20451;-79
2022/06/21 10:45:50;;;;;;;11.60;10.27;;;;;;;29.86;50.11;94454.91;5011239;28;20445;-79
2022/06/21 10:49:06;;;;;;;16.30;8.73;;;;;;;29.87;49.09;94449.22;5045982;28;20532;-78
2022/06/21 10:52:01;;;;;;;11.23;9.20;;;;;;;29.86;48.92;94453.00;5070725;28;20810;-79
2022/06/21 10:54:47;;;;;;;9.40;8.53;;;;;;;29.77;49.30;94459.16;5070691;28;20453;-79
2022/06/21 10:57:21;;;;;;;15.23;8.77;;;;;;;29.66;49.59;94457.47;5037915;28;20979;-79
2022/06/21 11:03:13;;;;;;;10.23;9.17;;;;;;;29.65;50.36;94461.25;5113411;28;20430;-79
2022/06/21 11:05:52;;;;;;;9.83;9.00;;;;;;;29.56;49.28;94453.59;5113119;28;20451;-80
2022/06/21 11:08:28;;;;;;;11.17;10.07;;;;;;;29.50;49.16;94465.47;5113246;28;20435;-79
2022/06/21 11:11:00;;;;;;;11.00;9.57;;;;;;;29.55;49.82;94451.97;5113189;28;20532;-79
2022/06/21 11:13:35;;;;;;;11.77;10.10;;;;;;;29.51;50.18;94463.56;5113273;28;20443;-79
2022/06/21 11:16:08;;;;;;;14.80;9.80;;;;;;;29.51;50.53;94463.56;5113537;28;20439;-79
2022/06/21 11:18:51;;;;;;;10.63;9.60;;;;;;;29.56;50.12;94453.59;5093446;28;20938;-79
2022/06/21 11:21:36;;;;;;;11.57;10.07;;;;;;;29.44;50.11;94455.66;5113142;28;20954;-79
2022/06/21 11:24:15;;;;;;;10.90;9.80;;;;;;;29.45;50.91;94451.88;5094334;28;20447;-79
2022/06/21 11:26:54;;;;;;;11.57;10.17;;;;;;;29.46;50.61;94447.28;5113246;28;20784;-79
2022/06/21 11:29:33;;;;;;;14.83;10.00;;;;;;;29.51;50.44;94445.47;5113030;28;20968;-79
2022/06/21 11:32:10;;;;;;;11.63;10.40;;;;;;;29.64;49.83;94454.19;5113069;28;20443;-79
2022/06/21 11:34:45;;;;;;;11.33;9.90;;;;;;;29.56;51.41;94450.91;5079465;28;20436;-79
2022/06/21 11:37:32;;;;;;;11.07;9.97;;;;;;;29.52;51.69;94455.22;5112725;28;20485;-79
2022/06/21 11:40:09;;;;;;;12.73;11.53;;;;;;;29.55;52.41;94449.28;5113335;28;20561;-79
2022/06/21 11:42:43;;;;;;;13.20;11.00;;;;;;;29.70;53.02;94458.56;5079487;28;20516;-79
2022/06/21 11:45:37;;;;;;;10.53;9.47;;;;;;;29.77;52.26;94445.63;5078314;28;20436;-79
2022/06/21 11:48:37;;;;;;;12.50;10.30;;;;;;;29.78;52.50;94450.81;5112725;28;20854;-79
2022/06/21 11:51:28;;;;;;;11.63;10.53;;;;;;;29.72;52.31;94451.00;5112621;28;20486;-79
2022/06/21 11:54:03;;;;;;;12.40;11.20;;;;;;;29.79;52.77;94447.03;5113092;28;20483;-79
2022/06/21 11:56:43;;;;;;;12.17;11.07;;;;;;;29.91;53.04;94444.94;5113100;28;20770;-79
2022/06/21 11:59:18;;;;;;;16.33;10.43;;;;;;;30.00;52.24;94441.72;5112866;28;20454;-79
2022/06/21 12:01:52;;;;;;;11.97;10.07;;;;;;;30.03;50.10;94439.34;5112897;28;20447;-79
2022/06/21 12:04:27;;;;;;;13.03;11.80;;;;;;;29.99;49.79;94443.59;5112763;28;20470;-79
2022/06/21 12:07:04;;;;;;;11.30;10.20;;;;;;;30.04;50.03;94442.84;5113119;28;20462;-79
2022/06/21 12:09:41;;;;;;;11.77;10.57;;;;;;;29.95;49.77;94437.09;5112564;28;20428;-79
2022/06/21 12:12:28;;;;;;;11.37;10.10;;;;;;;30.03;50.43;94439.34;5112802;28;20527;-79
2022/06/21 12:15:10;;;;;;;13.87;10.80;;;;;;;29.94;48.92;94437.38;5112563;28;20463;-79
2022/06/21 12:17:46;;;;;;;11.03;10.07;;;;;;;29.90;48.08;94426.25;5112728;28;20447;-80
2022/06/21 12:20:18;;;;;;;16.07;9.90;;;;;;;29.99;49.46;94432.78;5112745;28;20504;-79